Atlasburg, PA

5:23 PM EDT on September 03, 2015 (GMT -0400)
Burgettstown PA | | Change Station
CLOSE
Current Station
Personal Weather Station
Location: Burgsttown Pa, PA
Elevation: 988 ft
Nearby Weather Stations

Elev 988 ft 40.38 °N, 80.39 °W | Updated 23 seconds ago

Mostly Cloudy
Mostly Cloudy
89.1 °F
Feels Like 90 °F
N
0.0
Wind Variable Wind from NNW

Today
High -- | Low -- °F
--% Chance of Precip.
Yesterday
High -- | Low -- °F
Precip. -- in
6:50 AM 7:50 PM
Waning Gibbous, 67% visible
Pressure 29.91 in
Visibility 8.0 miles
Clouds Few 5500 ft
Scattered Clouds 15000 ft
Mostly Cloudy 25000 ft
Heat Index 90 °F
Dew Point 64 °F
Humidity 43%
Rainfall 0.00 in
Snow Depth Not available.
UV 2 out of 12
Pollen 10.10 out of 12
Air Quality Not available.
Flu Activity Not available.
METAR KPIT 032051Z 32005KT 8SM FEW055 SCT150 BKN250 32/17 A2992 RMK AO2 SLP129 T03170167 56019
Pressure 29.91 in
Visibility 8.0 miles
Clouds Few 5500 ft
Scattered Clouds 15000 ft
Mostly Cloudy 25000 ft
Heat Index 90 °F
Dew Point 64 °F
Humidity 43%
Rainfall 0.00 in
Snow Depth Not available.
UV 2 out of 12
Pollen 10.10 out of 12
Air Quality Not available.
Flu Activity Not available.
METAR KPIT 032051Z 32005KT 8SM FEW055 SCT150 BKN250 32/17 A2992 RMK AO2 SLP129 T03170167 56019

10-Day Weather Forecast

×

Almanac

Astronomy

Sep. 03, 2015 Rise Set
Actual Time
Civil Twilight
Nautical Twilight
Astronomical Twilight
Moon
Length of Visible Light
Length of Day
Tomorrow will be .
, % of the Moon is Illuminated

Today's Extremes

State Highs State Lows

Community

WunderPhotos

Upload Photos

1,852,038 photos uploaded!

WunderBlogs® & News

Nearby

Air Quality

  Air Quality AQ Index Pollutant
Not available.

Snow Depth

Station Depth Elevation

Earthquake Activity

City Distance Mag. Time & Date
Minimum magnitude displayed is 2.5.

Coastal Water Temperatures

Place Temperature

Stations

Nearby Weather Stations

Station Location Temp. Windchill Dew Point Humidity Wind Precip. Elev Updated Type